Time;durP1;ratioP1;P1;durP2;ratioP2;P2;SDS_P1;SDS_P2;PMS_P1;PMS_P2;Temp;Humidity;BMP_temperature;BMP_pressure;BME280_temperature;BME280_humidity;BME280_pressure;Samples;Min_cycle;Max_cycle;Signal;HPM_P1;HPM_P2
2022/09/13 00:01:19;;;;;;;4.30;3.90;;;;;;;12.38;83.12;100704.34;7395344;19;20087;-70
2022/09/13 00:03:48;;;;;;;4.78;3.58;;;;;;;12.38;83.10;100700.84;7395110;19;20077;-69
2022/09/13 00:06:21;;;;;;;4.53;3.42;;;;;;;12.37;83.01;100696.47;7394483;19;20017;-69
2022/09/13 00:08:52;;;;;;;4.50;4.10;;;;;;;12.37;83.03;100691.22;7395446;19;20015;-70
2022/09/13 00:11:23;;;;;;;4.50;4.10;;;;;;;12.36;83.14;100685.13;7393994;19;20477;-70
2022/09/13 00:13:52;;;;;;;4.38;3.97;;;;;;;12.36;83.31;100681.63;7394796;19;20014;-70
2022/09/13 00:16:23;;;;;;;5.25;3.88;;;;;;;12.36;83.37;100682.47;7394567;19;20028;-72
2022/09/13 00:18:52;;;;;;;4.55;3.92;;;;;;;12.35;83.42;100674.66;7393893;19;20033;-70
2022/09/13 00:21:25;;;;;;;5.40;4.50;;;;;;;12.35;83.39;100685.16;7393999;19;20015;-70
2022/09/13 00:23:55;;;;;;;4.32;3.92;;;;;;;12.34;83.55;100681.66;7394555;19;20017;-70
2022/09/13 00:26:26;;;;;;;4.80;4.05;;;;;;;12.32;83.61;100677.34;7394336;19;20015;-70
2022/09/13 00:28:57;;;;;;;4.53;4.13;;;;;;;12.33;83.50;100679.06;7394680;19;20081;-70
2022/09/13 00:31:27;;;;;;;4.32;3.92;;;;;;;12.32;83.58;100677.34;7393463;19;20078;-70
2022/09/13 00:33:57;;;;;;;4.32;3.92;;;;;;;12.31;83.47;100665.09;7398298;19;20018;-72
2022/09/13 00:36:28;;;;;;;4.78;4.35;;;;;;;12.28;83.59;100652.91;7400658;19;20351;-71
2022/09/13 00:38:57;;;;;;;5.28;4.78;;;;;;;12.28;83.57;100644.16;7399088;19;20019;-71
2022/09/13 00:41:25;;;;;;;8.63;4.10;;;;;;;12.27;83.71;100640.69;7398734;19;20018;-70
2022/09/13 00:43:57;;;;;;;6.40;4.72;;;;;;;12.25;83.81;100633.75;7401522;19;20414;-70
2022/09/13 00:46:33;;;;;;;6.30;5.13;;;;;;;12.24;83.73;100632.03;7401920;19;20022;-71
2022/09/13 00:49:06;;;;;;;6.43;5.38;;;;;;;12.21;83.85;100617.19;7401821;19;20078;-71
2022/09/13 00:51:38;;;;;;;7.70;5.40;;;;;;;12.19;83.95;100609.31;7400844;19;20022;-71
2022/09/13 00:54:06;;;;;;;5.00;4.50;;;;;;;12.17;84.12;100611.16;7401003;19;20025;-71
2022/09/13 00:56:38;;;;;;;4.97;4.43;;;;;;;12.16;83.97;100608.59;7398699;19;20019;-71
2022/09/13 00:59:11;;;;;;;5.10;4.53;;;;;;;12.14;84.23;100597.25;7400044;19;20015;-71
2022/09/13 01:01:48;;;;;;;4.95;4.18;;;;;;;12.12;84.16;100597.28;7400409;19;20014;-71
2022/09/13 01:04:19;;;;;;;4.63;4.22;;;;;;;12.10;84.23;100587.72;7401417;19;20082;-71
2022/09/13 01:06:53;;;;;;;5.22;4.60;;;;;;;12.09;84.16;100584.22;7400582;19;20086;-71
2022/09/13 01:09:22;;;;;;;4.97;4.40;;;;;;;12.09;84.35;100589.47;7400394;19;20070;-71
2022/09/13 01:11:54;;;;;;;5.43;3.95;;;;;;;12.08;84.45;100589.53;7399170;19;20482;-71
2022/09/13 01:14:25;;;;;;;4.45;4.05;;;;;;;12.07;84.55;100593.94;7401848;19;20097;-72
2022/09/13 01:16:54;;;;;;;6.00;4.03;;;;;;;12.02;84.36;100594.06;7397554;19;20369;-72
2022/09/13 01:19:22;;;;;;;4.20;3.90;;;;;;;12.06;84.62;100600.09;7398494;19;20500;-70
2022/09/13 01:22:15;;;;;;;5.47;4.15;;;;;;;12.05;84.73;100599.22;7399154;19;20078;-70
2022/09/13 01:25:17;;;;;;;4.32;3.85;;;;;;;12.03;84.52;100590.53;7400073;19;20811;-70
2022/09/13 01:28:11;;;;;;;4.57;4.18;;;;;;;12.03;84.57;100582.66;7397748;19;20029;-70
2022/09/13 01:30:50;;;;;;;4.60;4.23;;;;;;;12.03;84.66;100587.03;7399828;19;20021;-70
2022/09/13 01:33:38;;;;;;;4.10;3.70;;;;;;;12.02;84.60;100593.22;7397271;19;20011;-70
2022/09/13 01:36:42;;;;;;;5.38;4.88;;;;;;;12.02;84.82;100587.97;7398907;19;20025;-70
2022/09/13 01:39:16;;;;;;;4.82;4.18;;;;;;;12.00;84.75;100574.00;7397005;19;20007;-70
2022/09/13 01:41:52;;;;;;;;;;;;;;;11.99;84.74;100573.16;7399362;19;20082;-70
2022/09/13 01:44:31;;;;;;;4.97;4.50;;;;;;;11.99;84.43;100574.91;7398208;19;19918;-70
2022/09/13 01:47:09;;;;;;;7.75;4.70;;;;;;;11.97;84.59;100577.56;7399930;19;20018;-70
2022/09/13 01:49:48;;;;;;;5.78;4.30;;;;;;;11.96;84.76;100575.00;7396670;19;20485;-70
2022/09/13 01:52:23;;;;;;;5.03;4.60;;;;;;;11.95;84.87;100574.09;7397054;19;20070;-70
2022/09/13 01:54:59;;;;;;;7.15;4.20;;;;;;;11.93;85.02;100570.66;7397007;19;20426;-71
2022/09/13 01:57:33;;;;;;;6.47;4.70;;;;;;;11.92;84.99;100565.44;7399539;19;20066;-70
2022/09/13 02:00:06;;;;;;;5.15;4.70;;;;;;;11.90;84.94;100571.63;7397718;19;20030;-70
2022/09/13 02:02:43;;;;;;;5.05;4.40;;;;;;;11.88;85.02;100570.78;7397141;19;20015;-70
2022/09/13 02:05:21;;;;;;;4.78;4.38;;;;;;;11.88;85.05;100565.53;7399287;19;20015;-71
2022/09/13 02:07:57;;;;;;;7.20;4.82;;;;;;;11.85;85.04;100563.00;7396521;19;20018;-70
2022/09/13 02:10:31;;;;;;;6.05;4.60;;;;;;;11.82;85.29;100557.84;7398301;19;20015;-71
2022/09/13 02:13:00;;;;;;;;;;;;;;;11.80;85.48;100551.75;7399697;19;20021;-71
2022/09/13 02:15:34;;;;;;;9.10;5.30;;;;;;;11.79;85.17;100550.06;7401140;19;20331;-71
2022/09/13 02:18:11;;;;;;;5.93;5.38;;;;;;;11.78;85.30;100550.06;7399600;19;20025;-70
2022/09/13 02:20:43;;;;;;;7.28;5.50;;;;;;;11.77;85.59;100535.22;7396319;19;20014;-70
2022/09/13 02:23:17;;;;;;;5.78;5.13;;;;;;;11.76;85.64;100518.59;7397311;19;20022;-71
2022/09/13 02:25:48;;;;;;;5.55;4.90;;;;;;;11.77;85.61;100527.34;7398568;19;20078;-70
2022/09/13 02:28:22;;;;;;;6.13;5.18;;;;;;;11.77;85.79;100527.34;7398278;19;20074;-71
2022/09/13 02:30:54;;;;;;;5.85;5.25;;;;;;;11.77;85.75;100519.47;7398356;19;20022;-70
2022/09/13 02:33:31;;;;;;;8.20;5.57;;;;;;;11.77;85.84;100516.84;7397348;19;20435;-71
2022/09/13 02:36:04;;;;;;;7.13;5.35;;;;;;;11.76;85.96;100509.84;7395397;19;20347;-71
2022/09/13 02:38:39;;;;;;;6.53;5.90;;;;;;;11.76;85.97;100508.06;7395579;19;20066;-71
2022/09/13 02:41:15;;;;;;;6.00;5.45;;;;;;;11.76;85.86;100507.22;7396077;19;20082;-69
2022/09/13 02:43:47;;;;;;;6.18;5.55;;;;;;;11.75;86.02;100506.34;7398083;19;20070;-71
2022/09/13 02:46:28;;;;;;;6.75;5.47;;;;;;;11.73;86.20;100495.88;7395251;19;20374;-71
2022/09/13 02:49:07;;;;;;;6.72;6.18;;;;;;;11.74;85.98;100499.41;7397912;19;20028;-71
2022/09/13 02:51:47;;;;;;;8.23;7.25;;;;;;;11.74;86.29;100513.38;7395609;19;20019;-70
2022/09/13 02:54:27;;;;;;;7.68;6.85;;;;;;;11.74;86.16;100512.53;7395778;19;20086;-71
2022/09/13 02:57:01;;;;;;;7.32;6.13;;;;;;;11.72;86.15;100509.94;7394262;19;20021;-70
2022/09/13 02:59:29;;;;;;;7.32;5.95;;;;;;;11.73;86.21;100505.56;7396009;19;20504;-71
2022/09/13 03:02:04;;;;;;;8.55;6.47;;;;;;;11.72;86.35;100501.19;7394912;19;20082;-71
2022/09/13 03:04:35;;;;;;;6.70;6.10;;;;;;;11.73;86.37;100490.63;7397362;19;20025;-71
2022/09/13 03:07:04;;;;;;;7.07;6.35;;;;;;;11.72;86.59;100488.91;7397140;19;20021;-70
2022/09/13 03:09:34;;;;;;;7.85;7.05;;;;;;;11.71;86.72;100475.81;7395243;19;20029;-70
2022/09/13 03:12:31;;;;;;;7.43;6.72;;;;;;;11.72;86.70;100470.50;7395374;19;20484;-70
2022/09/13 03:15:08;;;;;;;7.05;5.95;;;;;;;11.72;86.78;100459.16;7396221;19;20500;-70
2022/09/13 03:17:48;;;;;;;7.85;7.15;;;;;;;11.71;86.84;100466.19;7396873;19;20015;-70
2022/09/13 03:20:32;;;;;;;6.93;6.22;;;;;;;11.71;86.71;100465.31;7394354;19;20006;-70
2022/09/13 03:23:19;;;;;;;6.93;6.25;;;;;;;11.71;86.67;100460.94;7394458;19;20082;-69
2022/09/13 03:26:10;;;;;;;7.32;6.63;;;;;;;11.70;86.97;100459.19;7395822;19;20360;-70
2022/09/13 03:28:48;;;;;;;7.38;6.68;;;;;;;11.69;86.82;100451.34;7394164;19;20014;-70
2022/09/13 03:31:26;;;;;;;9.68;8.30;;;;;;;11.70;87.00;100455.69;7395988;19;20027;-70
2022/09/13 03:33:59;;;;;;;7.53;6.78;;;;;;;11.70;86.90;100453.06;7396136;19;20019;-71
2022/09/13 03:36:37;;;;;;;7.93;7.22;;;;;;;11.71;87.21;100454.78;7396007;19;20098;-70
2022/09/13 03:39:15;;;;;;;7.15;6.45;;;;;;;11.71;86.95;100449.53;7394105;19;20129;-70
2022/09/13 03:41:46;;;;;;;8.18;6.95;;;;;;;11.74;86.94;100449.47;7394763;19;20017;-70
2022/09/13 03:44:18;;;;;;;8.57;7.70;;;;;;;11.74;86.96;100445.06;7396253;19;20077;-70
2022/09/13 03:46:50;;;;;;;8.43;7.60;;;;;;;11.77;87.02;100443.25;7403030;19;20074;-71
2022/09/13 03:49:22;;;;;;;8.70;7.63;;;;;;;11.79;87.16;100450.19;7396510;19;20365;-70
2022/09/13 03:51:54;;;;;;;8.50;7.60;;;;;;;11.81;87.10;100450.97;7394816;19;20041;-70
2022/09/13 03:54:25;;;;;;;9.07;7.70;;;;;;;11.83;87.08;100454.41;7393574;19;20041;-72
2022/09/13 03:57:12;;;;;;;8.70;7.78;;;;;;;11.87;87.35;100452.56;7393337;19;20540;-71
2022/09/13 03:59:44;;;;;;;8.40;7.60;;;;;;;11.90;87.18;100449.81;7394264;19;20086;-70
2022/09/13 04:02:13;;;;;;;8.80;7.15;;;;;;;11.92;87.15;100441.88;7393419;19;20070;-69
2022/09/13 04:04:42;;;;;;;8.48;7.68;;;;;;;11.95;87.15;100447.06;7394955;19;20024;-69
2022/09/13 04:07:15;;;;;;;8.32;7.53;;;;;;;11.96;86.94;100441.78;7397619;19;20468;-70
2022/09/13 04:09:44;;;;;;;8.10;7.40;;;;;;;11.97;87.04;100429.50;7409698;19;20020;-70
2022/09/13 04:12:13;;;;;;;10.88;8.00;;;;;;;11.99;87.13;100432.91;7407342;19;20037;-70
2022/09/13 04:14:42;;;;;;;9.38;8.43;;;;;;;12.00;86.81;100434.66;7409248;19;20076;-71
2022/09/13 04:17:12;;;;;;;8.38;7.47;;;;;;;12.01;86.96;100429.34;7408991;19;20369;-71
2022/09/13 04:19:40;;;;;;;9.02;7.70;;;;;;;12.01;86.86;100428.47;7408197;19;20082;-70
2022/09/13 04:22:08;;;;;;;9.50;8.23;;;;;;;12.02;86.79;100432.84;7407252;19;20021;-70
2022/09/13 04:24:40;;;;;;;8.57;7.72;;;;;;;12.03;86.91;100434.53;7408578;19;20082;-70
2022/09/13 04:27:09;;;;;;;9.15;8.05;;;;;;;12.02;86.99;100432.84;7408968;19;20022;-70
2022/09/13 04:29:37;;;;;;;9.98;8.27;;;;;;;12.04;87.03;100438.88;7408365;19;20014;-70
2022/09/13 04:32:06;;;;;;;9.65;8.75;;;;;;;12.06;86.93;100434.44;7406308;19;20014;-70
2022/09/13 04:34:34;;;;;;;8.82;8.02;;;;;;;12.06;86.79;100422.16;7407619;19;20019;-70
2022/09/13 04:37:03;;;;;;;11.15;8.45;;;;;;;12.09;86.94;100421.19;7407002;19;20090;-70
2022/09/13 04:39:31;;;;;;;9.38;8.27;;;;;;;12.10;86.81;100420.28;7406856;19;20033;-70
2022/09/13 04:42:02;;;;;;;9.27;8.27;;;;;;;12.13;87.03;100421.94;7406439;19;20086;-70
2022/09/13 04:44:31;;;;;;;10.93;8.20;;;;;;;12.13;86.73;100409.69;7408205;19;20095;-70
2022/09/13 04:46:59;;;;;;;10.05;8.73;;;;;;;12.16;86.60;100411.34;7407552;19;20354;-70
2022/09/13 04:49:28;;;;;;;10.85;9.20;;;;;;;12.18;86.73;100420.91;7407705;19;20018;-70
2022/09/13 04:51:56;;;;;;;10.10;9.10;;;;;;;12.21;86.85;100418.16;7405335;19;20018;-70
2022/09/13 04:54:25;;;;;;;9.93;8.93;;;;;;;12.22;86.46;100413.78;7408596;19;20432;-71
2022/09/13 04:56:54;;;;;;;12.55;8.98;;;;;;;12.25;86.66;100412.81;7407316;19;20038;-69
2022/09/13 04:59:25;;;;;;;8.75;7.78;;;;;;;12.27;86.69;100401.31;7405922;19;20488;-70
2022/09/13 05:01:53;;;;;;;9.77;7.65;;;;;;;12.30;86.60;100395.94;7405923;19;20015;-70
2022/09/13 05:04:22;;;;;;;9.10;8.20;;;;;;;12.33;86.56;100389.72;7405877;19;20450;-71
2022/09/13 05:06:51;;;;;;;8.98;8.10;;;;;;;12.37;86.54;100391.31;7405748;19;20150;-69
2022/09/13 05:09:20;;;;;;;9.18;7.22;;;;;;;12.39;86.41;100379.81;7407019;19;20074;-71
2022/09/13 05:11:48;;;;;;;8.45;7.65;;;;;;;12.43;86.26;100383.22;7405683;19;20489;-71
2022/09/13 05:14:17;;;;;;;8.68;7.78;;;;;;;12.42;86.25;100370.97;7404416;19;20037;-70
2022/09/13 05:16:48;;;;;;;8.75;7.85;;;;;;;12.51;86.05;100378.56;7406448;19;20082;-70
2022/09/13 05:19:17;;;;;;;7.65;6.80;;;;;;;12.57;86.06;100384.50;7398831;19;20078;-70
2022/09/13 05:21:45;;;;;;;10.23;7.60;;;;;;;12.61;86.04;100391.38;7395415;19;20444;-71
2022/09/13 05:24:13;;;;;;;9.45;8.23;;;;;;;12.65;85.84;100388.59;7395891;19;20041;-70
2022/09/13 05:26:42;;;;;;;10.48;7.38;;;;;;;12.70;85.80;100385.75;7397120;19;20560;-71
2022/09/13 05:29:10;;;;;;;9.35;7.95;;;;;;;12.75;85.66;100391.75;7397309;19;20186;-70
2022/09/13 05:31:42;;;;;;;10.32;7.43;;;;;;;12.81;85.61;100395.91;7396670;19;20090;-69
2022/09/13 05:34:16;;;;;;;9.00;8.10;;;;;;;12.85;85.53;100390.50;7398627;19;20014;-70
2022/09/13 05:36:45;;;;;;;9.13;8.02;;;;;;;12.88;85.65;100385.09;7398197;19;20434;-69
2022/09/13 05:39:16;;;;;;;9.10;8.20;;;;;;;12.95;85.33;100387.50;7399118;19;20024;-70
2022/09/13 05:41:45;;;;;;;10.02;8.23;;;;;;;12.98;84.96;100377.72;7395598;19;20014;-70
2022/09/13 05:44:13;;;;;;;8.35;7.53;;;;;;;13.03;85.12;100380.19;7395524;19;20042;-71
2022/09/13 05:46:42;;;;;;;9.23;7.72;;;;;;;13.07;84.84;100378.28;7397785;19;20544;-72
2022/09/13 05:49:14;;;;;;;10.02;7.97;;;;;;;13.09;84.88;100369.44;7398977;19;20091;-71
2022/09/13 05:51:43;;;;;;;8.93;8.02;;;;;;;13.11;84.72;100372.84;7396353;19;20019;-70
2022/09/13 05:54:13;;;;;;;9.45;7.45;;;;;;;13.13;84.76;100368.38;7396512;19;20022;-69
2022/09/13 05:56:41;;;;;;;11.68;7.95;;;;;;;13.15;84.98;100369.16;7396819;19;20031;-69
2022/09/13 05:59:14;;;;;;;8.55;7.18;;;;;;;13.15;84.96;100366.53;7398668;19;20011;-69
2022/09/13 06:01:42;;;;;;;8.45;7.40;;;;;;;13.13;85.18;100367.50;7396579;19;20018;-70
2022/09/13 06:04:13;;;;;;;13.23;8.82;;;;;;;13.08;85.75;100374.72;7398268;19;20015;-69
2022/09/13 06:06:42;;;;;;;9.98;8.98;;;;;;;13.02;86.26;100367.94;7398460;19;20031;-69
2022/09/13 06:09:12;;;;;;;10.45;9.35;;;;;;;12.95;86.94;100377.81;7398365;19;20010;-70
2022/09/13 06:11:41;;;;;;;11.23;9.55;;;;;;;12.85;87.84;100385.22;7396427;19;20041;-70
2022/09/13 06:14:09;;;;;;;12.57;10.50;;;;;;;12.74;88.46;100379.50;7396163;19;20033;-70
2022/09/13 06:16:38;;;;;;;11.20;9.90;;;;;;;12.67;89.29;100389.38;7397647;19;20116;-68
2022/09/13 06:19:07;;;;;;;11.13;9.98;;;;;;;12.60;89.67;100389.66;7397682;19;20093;-67
2022/09/13 06:21:38;;;;;;;12.70;11.43;;;;;;;12.53;90.07;100399.53;7396317;19;20023;-69
2022/09/13 06:24:08;;;;;;;12.65;11.02;;;;;;;12.47;90.51;100392.75;7398863;19;20018;-69
2022/09/13 06:26:36;;;;;;;13.45;10.52;;;;;;;12.43;90.93;100395.53;7397616;19;20018;-68
2022/09/13 06:29:05;;;;;;;13.55;11.68;;;;;;;12.41;91.40;100392.94;7396817;19;20041;-69
2022/09/13 06:31:33;;;;;;;12.70;11.40;;;;;;;12.38;91.56;100395.66;7394975;19;20515;-71
2022/09/13 06:34:04;;;;;;;17.10;12.05;;;;;;;12.35;91.85;100393.16;7395515;19;20379;-71
2022/09/13 06:36:32;;;;;;;13.70;12.30;;;;;;;12.33;91.86;100394.97;7395456;19;20022;-69
2022/09/13 06:39:05;;;;;;;14.48;12.50;;;;;;;12.32;92.23;100398.50;7395617;19;20011;-69
2022/09/13 06:41:33;;;;;;;15.00;12.52;;;;;;;12.30;92.36;100395.09;7394725;19;20092;-69
2022/09/13 06:44:04;;;;;;;14.57;12.80;;;;;;;12.28;92.63;100387.22;7396708;19;20090;-70
2022/09/13 06:46:34;;;;;;;15.27;13.07;;;;;;;12.27;92.57;100393.44;7396380;19;20019;-69
2022/09/13 06:49:11;;;;;;;16.10;13.48;;;;;;;12.28;92.97;100386.38;7396834;19;20031;-69
2022/09/13 06:51:39;;;;;;;15.88;12.82;;;;;;;12.29;92.89;100393.38;7396889;19;20086;-69
2022/09/13 06:54:10;;;;;;;17.27;13.90;;;;;;;12.29;93.62;100399.47;7396938;19;20020;-69
2022/09/13 06:56:40;;;;;;;17.80;13.20;;;;;;;12.31;93.09;100400.28;7397285;19;20127;-70
2022/09/13 06:59:12;;;;;;;15.90;13.85;;;;;;;12.35;92.97;100403.69;7394131;19;20014;-68
2022/09/13 07:01:42;;;;;;;15.63;13.95;;;;;;;12.36;93.78;100401.00;7395103;19;20022;-69
2022/09/13 07:04:12;;;;;;;15.00;13.45;;;;;;;12.39;94.08;100392.97;7397112;19;20023;-68
2022/09/13 07:06:43;;;;;;;15.23;13.63;;;;;;;12.42;93.77;100378.84;7395117;19;20422;-69
2022/09/13 07:09:16;;;;;;;15.40;12.27;;;;;;;12.46;93.56;100375.22;7397423;19;20089;-68
2022/09/13 07:11:46;;;;;;;14.35;12.75;;;;;;;12.51;93.79;100382.94;7394647;19;20018;-68
2022/09/13 07:14:16;;;;;;;15.07;12.93;;;;;;;12.54;94.02;100372.31;7396228;19;20014;-67
2022/09/13 07:16:45;;;;;;;14.48;12.98;;;;;;;12.57;93.52;100351.13;7394811;19;20034;-68
2022/09/13 07:19:16;;;;;;;16.45;12.57;;;;;;;12.65;94.17;100342.97;7395733;19;20380;-68
2022/09/13 07:21:45;;;;;;;15.45;13.80;;;;;;;12.72;93.96;100344.47;7394433;19;20097;-69
2022/09/13 07:24:17;;;;;;;16.17;13.13;;;;;;;12.82;93.94;100347.63;7396475;19;20019;-68
2022/09/13 07:26:52;;;;;;;16.48;13.70;;;;;;;12.89;93.92;100351.75;7395809;19;20019;-68
2022/09/13 07:29:23;;;;;;;15.27;12.85;;;;;;;12.96;93.62;100336.56;7396064;19;20014;-67
2022/09/13 07:31:53;;;;;;;15.40;13.07;;;;;;;13.06;93.37;100331.81;7395063;19;20020;-66
2022/09/13 07:34:23;;;;;;;15.70;12.90;;;;;;;13.13;93.31;100342.03;7393573;19;20037;-67
2022/09/13 07:36:52;;;;;;;15.50;12.43;;;;;;;13.22;93.09;100346.09;7395048;19;20031;-67
2022/09/13 07:39:23;;;;;;;15.10;12.60;;;;;;;13.28;92.59;100327.41;7395257;19;20086;-67
2022/09/13 07:41:52;;;;;;;14.43;12.10;;;;;;;13.34;92.57;100323.66;7391538;19;20073;-68
2022/09/13 07:44:21;;;;;;;12.95;11.20;;;;;;;13.41;92.12;100343.63;7395148;19;20041;-68
2022/09/13 07:46:50;;;;;;;13.75;12.05;;;;;;;13.44;92.08;100340.00;7394512;19;20038;-68
2022/09/13 07:49:20;;;;;;;15.52;11.73;;;;;;;13.48;91.79;100341.59;7395125;19;20031;-68
2022/09/13 07:51:50;;;;;;;12.48;10.88;;;;;;;13.51;91.60;100339.69;7394577;19;20087;-66
2022/09/13 07:54:19;;;;;;;14.82;11.52;;;;;;;13.56;91.54;100336.00;7395123;19;20062;-67
2022/09/13 07:56:51;;;;;;;12.85;10.73;;;;;;;13.60;91.52;100335.81;7394890;19;20027;-67
2022/09/13 07:59:21;;;;;;;12.65;11.05;;;;;;;13.67;91.42;100334.66;7394820;19;20019;-68
2022/09/13 08:01:50;;;;;;;14.45;11.15;;;;;;;13.74;91.19;100335.25;7395190;19;20041;-67
2022/09/13 08:04:21;;;;;;;13.40;12.00;;;;;;;13.82;91.35;100322.59;7393706;19;20094;-68
2022/09/13 08:06:49;;;;;;;14.05;11.68;;;;;;;13.91;91.16;100326.63;7395002;19;20019;-67
2022/09/13 08:09:19;;;;;;;13.07;10.45;;;;;;;13.99;90.96;100334.25;7392512;19;20014;-68
2022/09/13 08:11:51;;;;;;;11.65;9.40;;;;;;;14.04;90.80;100326.97;7393141;19;20094;-69
2022/09/13 08:14:21;;;;;;;11.75;10.07;;;;;;;14.13;90.38;100333.66;7392430;19;20549;-69
2022/09/13 08:16:50;;;;;;;10.10;9.10;;;;;;;14.19;90.23;100325.44;7393652;19;20166;-69
2022/09/13 08:19:20;;;;;;;11.35;9.77;;;;;;;14.24;89.86;100326.13;7394475;19;20022;-68
2022/09/13 08:21:49;;;;;;;15.00;10.00;;;;;;;14.31;89.71;100332.81;7393496;19;20082;-69
2022/09/13 08:24:20;;;;;;;10.27;9.27;;;;;;;14.37;89.61;100330.84;7394065;19;20135;-69
2022/09/13 08:26:51;;;;;;;11.70;9.57;;;;;;;14.41;89.29;100340.34;7394721;19;20014;-69
2022/09/13 08:29:20;;;;;;;12.10;9.77;;;;;;;14.43;89.21;100326.16;7394254;19;20066;-69
2022/09/13 08:31:48;;;;;;;13.57;10.10;;;;;;;14.54;89.28;100341.50;7392878;19;20496;-71
2022/09/13 08:34:20;;;;;;;12.50;9.65;;;;;;;14.61;89.33;100355.31;7393544;19;20366;-69
2022/09/13 08:36:48;;;;;;;14.20;10.88;;;;;;;14.69;89.04;100355.84;7392082;19;20010;-69
2022/09/13 08:39:17;;;;;;;15.30;11.10;;;;;;;14.77;88.98;100358.13;7391604;19;20010;-69
2022/09/13 08:42:09;;;;;;;11.13;9.85;;;;;;;14.86;89.19;100359.50;7391320;19;20014;-70
2022/09/13 08:44:42;;;;;;;11.15;10.05;;;;;;;14.93;88.92;100355.66;7393480;19;20074;-69
2022/09/13 08:47:26;;;;;;;13.10;9.98;;;;;;;15.02;89.11;100351.72;7391894;19;20010;-66
2022/09/13 08:50:02;;;;;;;11.15;10.00;;;;;;;15.10;88.76;100362.78;7394162;19;20019;-68
2022/09/13 08:52:35;;;;;;;10.93;9.30;;;;;;;15.18;88.64;100360.66;7391789;19;20031;-69
2022/09/13 08:55:26;;;;;;;12.93;9.45;;;;;;;15.27;88.24;100360.22;7397965;19;20074;-68
2022/09/13 08:58:07;;;;;;;14.13;9.55;;;;;;;15.35;87.59;100357.19;7398700;19;20015;-69
2022/09/13 09:00:40;;;;;;;12.18;9.35;;;;;;;15.41;86.95;100356.91;7401088;19;20094;-69
2022/09/13 09:03:22;;;;;;;10.88;8.73;;;;;;;15.45;86.86;100347.88;7397730;19;20485;-68
2022/09/13 09:05:53;;;;;;;10.85;9.23;;;;;;;15.57;87.19;100348.22;7401104;19;20389;-68
2022/09/13 09:08:30;;;;;;;13.30;9.75;;;;;;;15.65;86.04;100346.06;7401165;19;20014;-68
2022/09/13 09:11:03;;;;;;;9.50;8.50;;;;;;;15.73;85.85;100349.19;7400674;19;20031;-69
2022/09/13 09:13:39;;;;;;;13.83;8.93;;;;;;;15.76;85.49;100343.75;7400935;19;20103;-68
2022/09/13 09:16:25;;;;;;;9.93;8.57;;;;;;;15.82;85.80;100347.91;7399949;19;20485;-69
2022/09/13 09:18:56;;;;;;;11.43;9.05;;;;;;;15.88;85.43;100342.28;7400096;19;20014;-68
2022/09/13 09:21:25;;;;;;;11.60;8.52;;;;;;;15.96;85.31;100339.25;7399239;19;20482;-68
2022/09/13 09:23:55;;;;;;;12.15;8.90;;;;;;;16.06;85.17;100337.88;7399399;19;20036;-69
2022/09/13 09:26:27;;;;;;;9.73;8.52;;;;;;;16.17;84.86;100324.09;7400364;19;20070;-69
2022/09/13 09:29:01;;;;;;;10.93;9.00;;;;;;;16.27;83.77;100335.91;7400728;19;20015;-68
2022/09/13 09:31:34;;;;;;;;;;;;;;;16.36;82.35;100331.91;7400602;19;20036;-68
2022/09/13 09:34:14;;;;;;;10.88;8.63;;;;;;;16.43;83.02;100332.47;7401007;19;20259;-67
2022/09/13 09:37:25;;;;;;;10.20;8.90;;;;;;;16.53;82.60;100332.81;7398983;19;20013;-68
2022/09/13 09:39:55;;;;;;;11.30;8.75;;;;;;;16.64;83.04;100326.97;7398903;19;20033;-68
2022/09/13 09:42:28;;;;;;;9.65;8.15;;;;;;;16.71;82.53;100326.53;7396664;19;20094;-68
2022/09/13 09:45:02;;;;;;;10.95;7.50;;;;;;;16.83;82.58;100321.50;7396668;19;20090;-68
2022/09/13 09:47:38;;;;;;;9.70;7.85;;;;;;;16.93;82.35;100322.75;7399582;19;20070;-67
2022/09/13 09:50:13;;;;;;;8.68;7.75;;;;;;;17.05;81.56;100319.41;7398643;19;20041;-68
2022/09/13 09:52:50;;;;;;;11.15;8.50;;;;;;;17.18;81.22;100314.28;7395830;19;20015;-68
2022/09/13 09:55:27;;;;;;;10.38;8.10;;;;;;;17.29;80.75;100319.00;7399715;19;20014;-67
2022/09/13 09:57:58;;;;;;;8.02;6.80;;;;;;;17.36;79.60;100317.72;7402000;19;20035;-70
2022/09/13 10:00:33;;;;;;;8.80;7.90;;;;;;;17.43;79.41;100307.59;7402448;19;20025;-69
2022/09/13 10:03:06;;;;;;;8.13;7.32;;;;;;;17.51;79.29;100315.09;7397736;19;20019;-69
2022/09/13 10:05:37;;;;;;;10.57;8.00;;;;;;;17.57;79.38;100317.41;7399884;19;20019;-69
2022/09/13 10:08:08;;;;;;;9.60;7.88;;;;;;;17.64;78.72;100323.19;7400477;19;20018;-71
2022/09/13 10:10:44;;;;;;;8.15;7.13;;;;;;;17.69;78.67;100315.84;7396767;19;20074;-70
2022/09/13 10:13:18;;;;;;;10.55;7.47;;;;;;;17.75;78.59;100310.16;7396070;19;20011;-70
2022/09/13 10:16:01;;;;;;;11.32;8.18;;;;;;;17.82;77.50;100313.31;7398050;19;20427;-70
2022/09/13 10:18:32;;;;;;;8.68;6.90;;;;;;;17.88;78.66;100315.59;7398411;19;20022;-70
2022/09/13 10:21:06;;;;;;;8.30;6.90;;;;;;;17.95;78.05;100310.84;7403043;19;20032;-74
2022/09/13 10:23:35;;;;;;;8.55;6.70;;;;;;;17.99;78.12;100307.88;7398703;19;20014;-68
2022/09/13 10:26:08;;;;;;;8.68;7.40;;;;;;;18.08;77.99;100301.16;7397074;19;20019;-68
2022/09/13 10:28:43;;;;;;;10.95;8.07;;;;;;;18.17;77.59;100292.66;7396427;19;20025;-70
2022/09/13 10:31:16;;;;;;;9.45;7.55;;;;;;;18.28;77.55;100304.44;7398401;19;20089;-69
2022/09/13 10:33:53;;;;;;;9.63;6.40;;;;;;;18.37;77.07;100302.06;7396942;19;20023;-71
2022/09/13 10:36:26;;;;;;;8.40;7.10;;;;;;;18.50;77.23;100298.63;7396820;19;20011;-70
2022/09/13 10:39:02;;;;;;;7.95;6.45;;;;;;;18.62;75.54;100292.56;7396526;19;20007;-70
2022/09/13 10:41:34;;;;;;;9.00;6.60;;;;;;;18.69;76.07;100285.06;7395909;19;20391;-69
2022/09/13 10:44:04;;;;;;;7.75;6.78;;;;;;;18.84;75.81;100291.22;7398194;19;20085;-69
2022/09/13 10:46:37;;;;;;;8.07;5.65;;;;;;;18.92;75.43;100278.31;7399325;19;20031;-72
2022/09/13 10:49:08;;;;;;;7.55;6.78;;;;;;;19.10;75.24;100294.03;7403556;19;20037;-69
2022/09/13 10:51:38;;;;;;;7.60;5.93;;;;;;;19.22;74.11;100282.59;7398277;19;20018;-70
2022/09/13 10:54:17;;;;;;;6.93;5.30;;;;;;;19.32;72.83;100283.72;7400477;19;20023;-69
2022/09/13 10:56:45;;;;;;;7.90;5.97;;;;;;;19.43;73.34;100284.81;7396757;19;20098;-69
2022/09/13 10:59:27;;;;;;;6.28;5.57;;;;;;;19.50;72.88;100278.13;7397436;19;20022;-69
2022/09/13 11:02:25;;;;;;;7.55;5.88;;;;;;;19.58;71.02;100288.25;7397303;19;20036;-69
2022/09/13 11:05:11;;;;;;;7.32;5.70;;;;;;;19.65;71.36;100292.19;7397487;19;20028;-68
2022/09/13 11:08:00;;;;;;;6.57;5.88;;;;;;;19.69;70.96;100291.06;7399344;19;20019;-71
2022/09/13 11:10:37;;;;;;;7.70;5.30;;;;;;;19.74;71.72;100286.28;7396935;19;20033;-71
2022/09/13 11:13:16;;;;;;;6.32;5.32;;;;;;;19.80;70.78;100290.31;7400176;19;20028;-70
2022/09/13 11:15:56;;;;;;;7.10;6.18;;;;;;;19.78;70.63;100284.25;7397506;19;20035;-69
2022/09/13 11:18:50;;;;;;;14.35;5.80;;;;;;;19.77;70.20;100278.06;7392881;19;20027;-69
2022/09/13 11:21:32;;;;;;;5.85;5.22;;;;;;;19.72;69.94;100282.84;7394529;19;20485;-70
2022/09/13 11:24:34;;;;;;;6.53;5.75;;;;;;;19.68;69.84;100284.84;7394481;19;20082;-69
2022/09/13 11:27:10;;;;;;;6.25;5.45;;;;;;;19.68;71.03;100289.34;7395225;19;20018;-68
2022/09/13 11:29:58;;;;;;;6.30;5.32;;;;;;;19.64;71.19;100291.34;7394865;19;20030;-70
2022/09/13 11:32:44;;;;;;;7.57;5.40;;;;;;;19.60;71.25;100286.31;7394111;19;20021;-69
2022/09/13 11:35:44;;;;;;;9.77;5.88;;;;;;;19.47;71.31;100288.97;7392564;19;20053;-74
2022/09/13 11:38:37;;;;;;;7.18;6.15;;;;;;;19.36;72.00;100293.19;7393270;19;20049;-66
2022/09/13 11:41:18;;;;;;;9.25;6.65;;;;;;;19.26;72.47;100277.91;7395555;19;20014;-68
2022/09/13 11:43:58;;;;;;;7.25;6.47;;;;;;;19.19;73.37;100274.81;7393085;19;20011;-69
2022/09/13 11:46:34;;;;;;;6.72;6.03;;;;;;;19.16;73.68;100275.88;7392982;19;20089;-70
2022/09/13 11:49:18;;;;;;;8.07;6.50;;;;;;;19.15;73.87;100278.66;7395484;19;20027;-69
2022/09/13 11:52:00;;;;;;;10.00;6.00;;;;;;;19.09;73.58;100287.00;7394648;19;20023;-69